^^
Anthem North Phoenix Station Historical Data
 
Daily Summary for June 24, 2019 Units:  English    Metric   Both
Daily Weekly Monthly Yearly Custom
  Current: High: Low: Average:
Temperature: 81.7 °F 99.3 °F 72.1 °F 86.8 °F
Dew Point: 22 °F 35.9 °F 7.8 °F 21.2 °F
Humidity: 11% 17% 4% 10%
Wind Speed: 0mph 7mph 0mph 2.1mph
Wind Gust: 0mph 11.5mph - -
WindCalm - - SSE
Pressure: 29.84 in 29.84 in 29.84 in -
Precipitation: 0 in      
Historical Graphs
 
 
Tabular Data for June 24, 2019
Time Temperature Dew Point Pressure Wind Wind Speed Wind Gust Humidity Rainfall Rate (Hourly)
00:04 76.4 °F 26.9 °F 29.84 in Calm     16% 0 in
00:09 76.6 °F 25.5 °F 29.84 in Calm     15% 0 in
00:14 76.6 °F 25.5 °F 29.84 in Calm     15% 0 in
00:19 76.2 °F 25.1 °F 29.84 in Calm     15% 0 in
00:24 75.9 °F 24.9 °F 29.84 in Calm     15% 0 in
00:29 75.7 °F 26.3 °F 29.84 in Calm   1.2 mph 16% 0 in
00:34 75.7 °F 24.7 °F 29.84 in Calm     15% 0 in
00:39 75.8 °F 24.8 °F 29.84 in Calm     15% 0 in
00:44 75.5 °F 27.6 °F 29.84 in Calm     17% 0 in
00:49 75 °F 25.7 °F 29.84 in Calm     16% 0 in
00:54 74.7 °F 23.9 °F 29.84 in North 1.5 mph 2.3 mph 15% 0 in
00:59 75.4 °F 24.5 °F 29.84 in NNW 2.6 mph 3.5 mph 15% 0 in
01:04 75.5 °F 24.6 °F 29.84 in NNE 2.5 mph 3.5 mph 15% 0 in
01:09 75.5 °F 24.6 °F 29.84 in NNE 2 mph 3.5 mph 15% 0 in
01:14 75.7 °F 24.7 °F 29.84 in NNE 2.9 mph 3.5 mph 15% 0 in
01:19 75.9 °F 24.9 °F 29.84 in North 2.4 mph 3.5 mph 15% 0 in
01:24 76.3 °F 25.2 °F 29.84 in NNE 1.2 mph 3 mph 15% 0 in
01:29 76.8 °F 25.6 °F 29.84 in NNE 2.8 mph 3.5 mph 15% 0 in
01:34 77.5 °F 26.2 °F 29.84 in NNE 2.6 mph 3.5 mph 15% 0 in
01:39 77.2 °F 24.3 °F 29.84 in NNE 2.2 mph 3.5 mph 14% 0 in
01:44 76.8 °F 25.6 °F 29.84 in NNW 2.2 mph 3.5 mph 15% 0 in
01:49 76.6 °F 25.5 °F 29.84 in North 1.4 mph 4 mph 15% 0 in
01:54 76.8 °F 25.6 °F 29.84 in NNE 4 mph 4 mph 15% 0 in
01:59 77.1 °F 25.9 °F 29.84 in NNE 3.1 mph 3.5 mph 15% 0 in
02:04 76.9 °F 25.7 °F 29.84 in North 2.1 mph 3 mph 15% 0 in
02:09 76.8 °F 25.6 °F 29.84 in NNE 1.7 mph 2.3 mph 15% 0 in
02:14 76.3 °F 25.2 °F 29.84 in NNE 1.3 mph 3 mph 15% 0 in
02:19 75.8 °F 24.8 °F 29.84 in NNE 1.5 mph 3.5 mph 15% 0 in
02:24 75.9 °F 24.9 °F 29.84 in North 2 mph 2.3 mph 15% 0 in
02:29 76.1 °F 25.1 °F 29.84 in NNE 1.4 mph 2 mph 15% 0 in
02:34 75.8 °F 24.8 °F 29.84 in NNE 1.4 mph 2 mph 15% 0 in
02:39 75.6 °F 24.7 °F 29.84 in North 2 mph 2.3 mph 15% 0 in
02:44 75.5 °F 24.6 °F 29.84 in North 2.2 mph 3 mph 15% 0 in
02:49 75.3 °F 26 °F 29.84 in North 3.9 mph 5.8 mph 16% 0 in
02:54 75.1 °F 25.8 °F 29.84 in NNW 2.5 mph 4 mph 16% 0 in
02:59 74.8 °F 25.6 °F 29.84 in NE 3.3 mph 5 mph 16% 0 in
03:04 74.9 °F 25.6 °F 29.84 in NNE 6.8 mph 8.1 mph 16% 0 in
03:09 74.9 °F 25.6 °F 29.84 in NNE 4 mph 4.6 mph 16% 0 in
03:14 74.4 °F 25.2 °F 29.84 in North 3.4 mph 5 mph 16% 0 in
03:19 74.4 °F 25.2 °F 29.84 in NNE 3 mph 3.5 mph 16% 0 in
03:24 74.2 °F 25.1 °F 29.84 in North 4.8 mph 8.1 mph 16% 0 in
03:29 74.2 °F 25.1 °F 29.84 in NNE 3 mph 3.5 mph 16% 0 in
03:34 74 °F 24.9 °F 29.84 in North 3.5 mph 8.1 mph 16% 0 in
03:39 73.9 °F 24.8 °F 29.84 in NNE 3 mph 3.5 mph 16% 0 in
03:44 73.9 °F 24.8 °F 29.84 in NNE 1 mph 1.2 mph 16% 0 in
03:49 73.9 °F 24.8 °F 29.84 in North 0.8 mph 3.5 mph 16% 0 in
03:54 73.8 °F 24.8 °F 29.84 in NNE 1 mph 1.2 mph 16% 0 in
03:59 73.7 °F 24.7 °F 29.84 in Calm   1.2 mph 16% 0 in
04:04 73.7 °F 24.7 °F 29.84 in NNE 1.8 mph 3 mph 16% 0 in
04:09 73.4 °F 24.4 °F 29.84 in North 2.2 mph 4 mph 16% 0 in
04:14 73.3 °F 24.4 °F 29.84 in NNE 2.6 mph 3.5 mph 16% 0 in
04:19 73.2 °F 24.3 °F 29.84 in NNE 2.1 mph 3.5 mph 16% 0 in
04:24 73.1 °F 24.2 °F 29.84 in North 3 mph 3.5 mph 16% 0 in
04:29 72.6 °F 23.8 °F 29.84 in NNE 2.6 mph 3.5 mph 16% 0 in
04:34 72.5 °F 23.7 °F 29.84 in NNE 3 mph 3.5 mph 16% 0 in
04:39 72.3 °F 23.6 °F 29.84 in NNE 1.6 mph 3.5 mph 16% 0 in
04:44 72.3 °F 23.6 °F 29.84 in NNE 4 mph 4.6 mph 16% 0 in
04:49 72.3 °F 23.6 °F 29.84 in North 2.7 mph 3.5 mph 16% 0 in
04:54 72.1 °F 23.4 °F 29.84 in North 1.8 mph 3.5 mph 16% 0 in
04:59 72.4 °F 23.6 °F 29.84 in North 2.5 mph 3.5 mph 16% 0 in
05:04 72.5 °F 22.2 °F 29.84 in NNE 2.7 mph 3.5 mph 15% 0 in
05:09 72.8 °F 22.4 °F 29.84 in NNE 3.4 mph 4.6 mph 15% 0 in
05:14 72.8 °F 22.4 °F 29.84 in North 2.6 mph 5 mph 15% 0 in
05:19 72.8 °F 22.4 °F 29.84 in North 2.6 mph 3.5 mph 15% 0 in
05:24 72.5 °F 22.2 °F 29.84 in NNE 2.4 mph 4 mph 15% 0 in
05:29 72.7 °F 22.3 °F 29.84 in NNE 3.2 mph 4.6 mph 15% 0 in
05:34 72.6 °F 22.3 °F 29.84 in NNE 2.4 mph 2.3 mph 15% 0 in
05:39 72.6 °F 22.3 °F 29.84 in North 2.4 mph 3.5 mph 15% 0 in
05:44 72.7 °F 22.3 °F 29.84 in North 2.1 mph 4 mph 15% 0 in
05:49 72.7 °F 22.3 °F 29.84 in North 2.5 mph 3.5 mph 15% 0 in
05:54 72.6 °F 23.8 °F 29.84 in North 2.7 mph 5 mph 16% 0 in
05:59 72.6 °F 22.3 °F 29.84 in NNE 3.4 mph 5 mph 15% 0 in
06:04 72.8 °F 22.4 °F 29.84 in NNE 2.5 mph 4 mph 15% 0 in
06:09 73.2 °F 22.7 °F 29.84 in NNE 3 mph 4 mph 15% 0 in
06:14 73.4 °F 22.9 °F 29.84 in NNW 3 mph 3.5 mph 15% 0 in
06:19 73.9 °F 23.3 °F 29.84 in North 3 mph 3.5 mph 15% 0 in
06:24 74.5 °F 22.1 °F 29.84 in North 2.3 mph 4 mph 14% 0 in
06:29 74.7 °F 22.3 °F 29.84 in NNE 4 mph 4 mph 14% 0 in
06:34 74.9 °F 22.5 °F 29.84 in North 4 mph 4 mph 14% 0 in
06:39 75.2 °F 22.7 °F 29.84 in NNW 3 mph 3.5 mph 14% 0 in
06:44 75.6 °F 24.7 °F 29.84 in NE 2.7 mph 4 mph 15% 0 in
06:49 76 °F 23.3 °F 29.84 in NNE 2.3 mph 3 mph 14% 0 in
06:54 76.5 °F 23.7 °F 29.84 in North 2.1 mph 3.5 mph 14% 0 in
06:59 77.2 °F 24.3 °F 29.84 in NNE 2.3 mph 3 mph 14% 0 in
07:04 77.6 °F 22.8 °F 29.84 in NNE 4.4 mph 4.6 mph 13% 0 in
07:09 78.1 °F 25 °F 29.84 in North 2 mph 2.3 mph 14% 0 in
07:14 78.9 °F 23.8 °F 29.84 in North 2.8 mph 3.5 mph 13% 0 in
07:19 79.9 °F 26.4 °F 29.84 in Calm   1.2 mph 14% 0 in
07:24 80.5 °F 25.1 °F 29.84 in Calm     13% 0 in
07:29 81.9 °F 28 °F 29.84 in Calm   1.2 mph 14% 0 in
07:34 83.8 °F 32.8 °F 29.84 in SE 0.4 mph 1 mph 16% 0 in
07:39 83.9 °F 32.9 °F 29.84 in SE 1.6 mph 3.5 mph 16% 0 in
07:44 83.9 °F 32.9 °F 29.84 in ESE 1.1 mph 2.3 mph 16% 0 in
07:49 84.6 °F 33.4 °F 29.84 in SE 1.9 mph 2.3 mph 16% 0 in
07:54 84.5 °F 33.4 °F 29.84 in SE 2 mph 2.3 mph 16% 0 in
07:59 84.2 °F 34.6 °F 29.84 in SE 1 mph 1.2 mph 17% 0 in
08:04 85.2 °F 35.5 °F 29.84 in SSE 0.7 mph 1.2 mph 17% 0 in
08:09 85.8 °F 35.9 °F 29.84 in NE 0.3 mph 1.2 mph 17% 0 in
08:14 86.5 °F 35 °F 29.84 in SE 0.9 mph 1.2 mph 16% 0 in
08:19 87.5 °F 35.8 °F 29.84 in SSE 1 mph 2.3 mph 16% 0 in
08:24 87.2 °F 35.5 °F 29.84 in ESE 0.7 mph 1.2 mph 16% 0 in
08:29 87.6 °F 34.2 °F 29.84 in SE 2.1 mph 2 mph 15% 0 in
08:34 88.1 °F 34.6 °F 29.84 in SE 0.2 mph 1.2 mph 15% 0 in
08:39 88.4 °F 34.9 °F 29.84 in SSE 3 mph 3.5 mph 15% 0 in
08:44 87.8 °F 34.4 °F 29.84 in South 1.4 mph 2.3 mph 15% 0 in
08:49 87.9 °F 34.5 °F 29.84 in South 0.5 mph 1.2 mph 15% 0 in
08:54 88.1 °F 34.6 °F 29.84 in SE 0.6 mph 1.2 mph 15% 0 in
08:59 88.8 °F 35.2 °F 29.84 in SE 0.5 mph 2.3 mph 15% 0 in
09:04 89.1 °F 35.4 °F 29.84 in South 0.7 mph 1.2 mph 15% 0 in
09:09 89.4 °F 33.9 °F 29.84 in SW 2 mph 2.3 mph 14% 0 in
09:14 89.5 °F 34 °F 29.84 in SSW 1.6 mph 2 mph 14% 0 in
09:19 89.4 °F 33.9 °F 29.84 in SSE 2.4 mph 3.5 mph 14% 0 in
09:24 89.8 °F 30.4 °F 29.84 in NE 1.6 mph 3.5 mph 12% 0 in
09:29 90.3 °F 30.8 °F 29.84 in South 3.6 mph 4 mph 12% 0 in
09:34 90.1 °F 30.6 °F 29.84 in SSW 5 mph 5 mph 12% 0 in
09:39 90.9 °F 31.3 °F 29.84 in SW 0.8 mph 4 mph 12% 0 in
09:44 90.9 °F 33.2 °F 29.84 in ESE 3.3 mph 3.5 mph 13% 0 in
09:49 90.8 °F 31.2 °F 29.84 in SE 3 mph 3.5 mph 12% 0 in
09:54 90.8 °F 31.2 °F 29.84 in SE 2 mph 3.5 mph 12% 0 in
09:59 90.7 °F 29 °F 29.84 in SSE 2.8 mph 5.8 mph 11% 0 in
10:04 90.8 °F 29 °F 29.84 in SSE 1 mph 1.2 mph 11% 0 in
10:05 90.8 °F 29 °F 29.84 in SSE 1 mph 1.2 mph 11% 0 in
10:14 91.2 °F 29.3 °F 29.84 in SSW 7 mph 6.9 mph 11% 0 in
10:19 91.2 °F 27 °F 29.84 in SW 3.4 mph 3.5 mph 10% 0 in
10:24 91.9 °F 29.9 °F 29.84 in SW 1.3 mph 2 mph 11% 0 in
10:29 91.8 °F 24.9 °F 29.84 in South 3.9 mph 4.6 mph 9% 0 in
10:34 92.2 °F 27.8 °F 29.84 in SW 1.5 mph 3.5 mph 10% 0 in
10:39 91.9 °F 27.5 °F 29.84 in WSW 3.3 mph 4.6 mph 10% 0 in
10:44 92.2 °F 25.2 °F 29.84 in SSE 1.2 mph 3.5 mph 9% 0 in
10:49 92.6 °F 25.5 °F 29.84 in SW 4.5 mph 5 mph 9% 0 in
10:54 92.4 °F 27.9 °F 29.84 in SE 3 mph 4.6 mph 10% 0 in
10:59 93.1 °F 28.5 °F 29.84 in WSW 6.2 mph 7 mph 10% 0 in
11:04 93.3 °F 26 °F 29.84 in SSW 6 mph 6 mph 9% 0 in
11:09 93.4 °F 28.7 °F 29.84 in SW 5 mph 4.6 mph 10% 0 in
11:14 93.4 °F 26.1 °F 29.84 in ESE 2 mph 3.5 mph 9% 0 in
11:19 93.8 °F 26.4 °F 29.84 in SE 2.2 mph 4.6 mph 9% 0 in
11:24 94.3 °F 24 °F 29.84 in East 2.9 mph 3.5 mph 8% 0 in
11:29 95 °F 24.5 °F 29.84 in WNW 2.1 mph 4.6 mph 8% 0 in
11:34 95.5 °F 24.8 °F 29.84 in SSW 2.4 mph 4 mph 8% 0 in
11:39 95.2 °F 24.6 °F 29.84 in SSE 2.7 mph 4.6 mph 8% 0 in
11:44 95.2 °F 21.4 °F 29.84 in Calm   1.2 mph 7% 0 in
11:49 95.3 °F 24.7 °F 29.84 in SW 2.8 mph 4.6 mph 8% 0 in
11:54 95.2 °F 24.6 °F 29.84 in SE 3 mph 3.5 mph 8% 0 in
11:59 95.3 °F 27.5 °F 29.84 in SW 2.3 mph 5.8 mph 9% 0 in
12:04 95.7 °F 27.8 °F 29.84 in SE 3.2 mph 3.5 mph 9% 0 in
12:09 95.7 °F 27.8 °F 29.84 in SW 1.2 mph 3.5 mph 9% 0 in
12:14 96 °F 25.2 °F 29.84 in SSW 3.5 mph 3.5 mph 8% 0 in
12:19 96.4 °F 18.7 °F 29.84 in SW 4.6 mph 6.9 mph 6% 0 in
12:24 96.4 °F 18.7 °F 29.84 in SSE 2 mph 2.3 mph 6% 0 in
12:29 97.6 °F 19.5 °F 29.84 in SSW 4.3 mph 4.6 mph 6% 0 in
12:34 98.1 °F 15.7 °F 29.84 in SSW 4.1 mph 5.8 mph 5% 0 in
12:39 97.3 °F 19.3 °F 29.84 in SW 4.2 mph 5.8 mph 6% 0 in
12:44 96.9 °F 19 °F 29.84 in East 5 mph 4.6 mph 6% 0 in
12:49 96.6 °F 18.8 °F 29.84 in SSW 5.7 mph 6 mph 6% 0 in
12:54 96.6 °F 18.8 °F 29.84 in South 6 mph 5.8 mph 6% 0 in
12:59 96.6 °F 14.6 °F 29.84 in SSW 5.3 mph 8 mph 5% 0 in
13:04 96.4 °F 14.5 °F 29.84 in ESE 3.5 mph 5.8 mph 5% 0 in
13:09 96.7 °F 14.7 °F 29.84 in Calm   1.2 mph 5% 0 in
13:14 97.5 °F 15.2 °F 29.84 in SSW 3.9 mph 5.8 mph 5% 0 in
13:19 97.3 °F 15.1 °F 29.84 in SSW 6.9 mph 11 mph 5% 0 in
13:24 97.1 °F 9.9 °F 29.84 in SSW 5 mph 6.9 mph 4% 0 in
13:29 97.2 °F 10 °F 29.84 in SE 2.1 mph 3.5 mph 4% 0 in
13:34 97.7 °F 15.4 °F 29.84 in SW 3.2 mph 3.5 mph 5% 0 in
13:39 97.7 °F 15.4 °F 29.84 in South 2 mph 2.3 mph 5% 0 in
13:44 98.5 °F 15.9 °F 29.84 in ESE 1.5 mph 2.3 mph 5% 0 in
13:49 98.8 °F 11.1 °F 29.84 in SE 2.6 mph 5.8 mph 4% 0 in
13:54 98.8 °F 11.1 °F 29.84 in SE 4 mph 4 mph 4% 0 in
13:59 98.3 °F 15.8 °F 29.84 in SE 1 mph 6.9 mph 5% 0 in
14:04 98.4 °F 15.9 °F 29.84 in South 4.6 mph 8 mph 5% 0 in
14:09 97.6 °F 10.2 °F 29.84 in South 4.5 mph 3.5 mph 4% 0 in
14:14 97.9 °F 15.5 °F 29.84 in SSE 3.8 mph 3.5 mph 5% 0 in
14:19 97.7 °F 10.3 °F 29.84 in SW 3.1 mph 5 mph 4% 0 in
14:24 97.8 °F 15.4 °F 29.84 in SE 2 mph 2.3 mph 5% 0 in
14:29 97.9 °F 10.4 °F 29.84 in Calm   1.2 mph 4% 0 in
14:33 98.7 °F 16.1 °F 29.84 in South 3 mph 6 mph 5% 0 in
14:39 99.3 °F 16.5 °F 29.84 in SW 3.8 mph 3.5 mph 5% 0 in
14:44 99.1 °F 16.4 °F 29.84 in SW 3.6 mph 4 mph 5% 0 in
14:49 98.6 °F 20.3 °F 29.84 in WSW 4.7 mph 6.9 mph 6% 0 in
14:54 98.9 °F 16.2 °F 29.84 in SSE 6 mph 6 mph 5% 0 in
14:59 98.6 °F 16 °F 29.84 in South 4 mph 11.5 mph 5% 0 in
15:04 98.4 °F 10.8 °F 29.84 in NW 3.1 mph 3.5 mph 4% 0 in
15:09 98.1 °F 15.7 °F 29.84 in WNW 1 mph 1.2 mph 5% 0 in
15:12 98.1 °F 15.7 °F 29.84 in South 0.9 mph 1.2 mph 5% 0 in
15:19 98.4 °F 10.8 °F 29.84 in WSW 1 mph 1.2 mph 4% 0 in
15:24 98.6 °F 10.9 °F 29.84 in SW 2.6 mph 5 mph 4% 0 in
15:29 98.7 °F 16.1 °F 29.84 in Calm   1.2 mph 5% 0 in
15:34 98.9 °F 11.1 °F 29.84 in South 5.4 mph 10.4 mph 4% 0 in
15:39 98.6 °F 10.9 °F 29.84 in SSW 4.3 mph 4.6 mph 4% 0 in
15:44 98.8 °F 11.1 °F 29.84 in South 1.5 mph 1.2 mph 4% 0 in
15:49 98.6 °F 10.9 °F 29.84 in Calm   5.8 mph 4% 0 in
15:54 98.4 °F 10.8 °F 29.84 in SSE 1 mph 1.2 mph 4% 0 in
15:59 98.5 °F 10.9 °F 29.84 in NW 0.7 mph 1.2 mph 4% 0 in
16:04 98.4 °F 10.8 °F 29.84 in SSE 2.5 mph 1.2 mph 4% 0 in
16:09 98.5 °F 15.9 °F 29.84 in SSW 5.1 mph 4.6 mph 5% 0 in
16:14 98.3 °F 10.7 °F 29.84 in SSW 3.6 mph 6.9 mph 4% 0 in
16:19 98.1 °F 10.6 °F 29.84 in SE 1.8 mph 4.6 mph 4% 0 in
16:24 97.7 °F 10.3 °F 29.84 in SW 1.1 mph 2.3 mph 4% 0 in
16:29 97.6 °F 10.2 °F 29.84 in South 0.7 mph 2.3 mph 4% 0 in
16:34 97.5 °F 15.2 °F 29.84 in South 0.6 mph 3.5 mph 5% 0 in
16:39 97.5 °F 10.2 °F 29.84 in SW 1 mph 2.3 mph 4% 0 in
16:44 97.5 °F 10.2 °F 29.84 in SSW 1.3 mph 2.3 mph 4% 0 in
16:49 97.4 °F 10.1 °F 29.84 in SSW 2 mph 3.5 mph 4% 0 in
16:54 97.4 °F 15.2 °F 29.84 in SSE 3.6 mph 3.5 mph 5% 0 in
16:59 97.6 °F 15.3 °F 29.84 in Calm     5% 0 in
17:04 97.8 °F 15.4 °F 29.84 in SW 2.5 mph 4.6 mph 5% 0 in
17:09 97.7 °F 15.4 °F 29.84 in Calm     5% 0 in
17:14 97.3 °F 10 °F 29.84 in Calm     4% 0 in
17:19 97.2 °F 10 °F 29.84 in SSW 5.7 mph 8.1 mph 4% 0 in
17:24 97.1 °F 15 °F 29.84 in WSW 2.9 mph 3.5 mph 5% 0 in
17:29 96.9 °F 14.8 °F 29.84 in SSW 1.5 mph 3.5 mph 5% 0 in
17:34 97.2 °F 15 °F 29.84 in SW 1.7 mph 2 mph 5% 0 in
17:39 97.1 °F 9.9 °F 29.84 in SSW 3.9 mph 5 mph 4% 0 in
17:44 97 °F 14.9 °F 29.84 in SSW 1.3 mph 3.5 mph 5% 0 in
17:49 97 °F 14.9 °F 29.84 in SE 2.1 mph 1.2 mph 5% 0 in
17:54 96.8 °F 14.7 °F 29.84 in SSW 3.6 mph 4 mph 5% 0 in
17:59 96.8 °F 14.7 °F 29.84 in SE 3.3 mph 6.9 mph 5% 0 in
18:04 96.9 °F 14.8 °F 29.84 in SW 3 mph 3.5 mph 5% 0 in
18:09 96.8 °F 14.7 °F 29.84 in South 4 mph 3.5 mph 5% 0 in
18:14 96.6 °F 14.6 °F 29.84 in SW 3.5 mph 4.6 mph 5% 0 in
18:19 96.2 °F 9.3 °F 29.84 in SW 2 mph 2.3 mph 4% 0 in
18:24 96 °F 9.1 °F 29.84 in SSE 5 mph 5 mph 4% 0 in
18:29 95.9 °F 9.1 °F 29.84 in South 3.6 mph 5 mph 4% 0 in
18:34 95.8 °F 9 °F 29.84 in SSE 2 mph 2.3 mph 4% 0 in
18:39 95.8 °F 9 °F 29.84 in WSW 1.7 mph 3 mph 4% 0 in
18:44 95.8 °F 9 °F 29.84 in SW 2 mph 2.3 mph 4% 0 in
18:46 95.8 °F 9 °F 29.84 in SW 2 mph 2.3 mph 4% 0 in
18:54 95.5 °F 8.8 °F 29.84 in SSW 2.6 mph 4.6 mph 4% 0 in
18:59 95.4 °F 8.7 °F 29.84 in SSW 1 mph 3.5 mph 4% 0 in
19:04 95.3 °F 8.7 °F 29.84 in SSW 2 mph 2.3 mph 4% 0 in
19:09 95 °F 8.5 °F 29.84 in South 0.7 mph 2.3 mph 4% 0 in
19:14 95 °F 8.5 °F 29.84 in WSW 3 mph 3.5 mph 4% 0 in
19:19 94.8 °F 8.3 °F 29.84 in SW 1.2 mph 2.3 mph 4% 0 in
19:24 94.4 °F 8.1 °F 29.84 in SW 2.8 mph 4 mph 4% 0 in
19:29 94.1 °F 7.8 °F 29.84 in SSW 0.5 mph 2.3 mph 4% 0 in
19:34 93.9 °F 12.7 °F 29.84 in SSW 1 mph 2.3 mph 5% 0 in
19:39 93.5 °F 12.4 °F 29.84 in South 0.5 mph 1.2 mph 5% 0 in
19:44 93.1 °F 12.2 °F 29.84 in SW 1.2 mph 2.3 mph 5% 0 in
19:49 92.9 °F 12 °F 29.84 in Calm     5% 0 in
19:54 92.4 °F 11.7 °F 29.84 in South 0.6 mph 1.2 mph 5% 0 in
19:59 91.9 °F 11.3 °F 29.84 in Calm     5% 0 in
20:04 91.3 °F 15 °F 29.84 in Calm     6% 0 in
20:09 90.9 °F 14.7 °F 29.84 in Calm     6% 0 in
20:29 88.2 °F 19.4 °F 29.84 in Calm     8% 0 in
20:34 87.6 °F 19 °F 29.84 in Calm     8% 0 in
20:39 86.8 °F 21.2 °F 29.84 in Calm     9% 0 in
20:44 86.3 °F 20.8 °F 29.84 in Calm     9% 0 in
20:49 85.8 °F 20.4 °F 29.84 in Calm     9% 0 in
20:54 85.4 °F 20.1 °F 29.84 in Calm     9% 0 in
20:59 85.2 °F 17.2 °F 29.84 in Calm     8% 0 in
21:04 85 °F 19.8 °F 29.84 in Calm     9% 0 in
21:09 84.6 °F 19.5 °F 29.84 in Calm     9% 0 in
21:14 84.3 °F 21.8 °F 29.84 in Calm     10% 0 in
21:19 84.3 °F 19.3 °F 29.84 in Calm     9% 0 in
21:24 84.3 °F 19.3 °F 29.84 in Calm     9% 0 in
21:29 84.3 °F 19.3 °F 29.84 in Calm     9% 0 in
21:34 84.2 °F 19.2 °F 29.84 in Calm     9% 0 in
21:39 84.3 °F 19.3 °F 29.84 in Calm     9% 0 in
21:44 84.1 °F 21.6 °F 29.84 in Calm     10% 0 in
21:49 83.3 °F 23.3 °F 29.84 in Calm     11% 0 in
21:54 82.7 °F 20.6 °F 29.84 in Calm     10% 0 in
21:59 83.1 °F 20.9 °F 29.84 in Calm     10% 0 in
22:04 83.3 °F 21 °F 29.84 in Calm     10% 0 in
22:09 83.5 °F 21.2 °F 29.84 in Calm   1.2 mph 10% 0 in
22:14 83 °F 23 °F 29.84 in Calm   1.2 mph 11% 0 in
22:19 83 °F 23 °F 29.84 in Calm     11% 0 in
22:24 82.4 °F 22.6 °F 29.84 in SE 1 mph 1.2 mph 11% 0 in
22:29 82.2 °F 22.4 °F 29.84 in Calm     11% 0 in
22:34 82.1 °F 20.1 °F 29.84 in ESE 0.7 mph 1.2 mph 10% 0 in
22:39 82.4 °F 22.6 °F 29.84 in Calm   1.2 mph 11% 0 in
22:44 82.2 °F 22.4 °F 29.84 in Calm     11% 0 in
22:49 81.5 °F 21.9 °F 29.84 in Calm     11% 0 in
22:54 80.8 °F 21.3 °F 29.84 in Calm     11% 0 in
22:59 80.5 °F 21.1 °F 29.84 in North 0.9 mph 2.3 mph 11% 0 in
23:04 81.1 °F 21.6 °F 29.84 in North 0.7 mph 1.2 mph 11% 0 in
23:09 81.7 °F 22 °F 29.84 in Calm     11% 0 in
Anthen North Phoenix Weather
Compliments of Weather Underground - 2.5 mb